Time;durP1;ratioP1;P1;durP2;ratioP2;P2;SDS_P1;SDS_P2;PMS_P1;PMS_P2;Temp;Humidity;BMP_temperature;BMP_pressure;BME280_temperature;BME280_humidity;BME280_pressure;Samples;Min_cycle;Max_cycle;Signal;HPM_P1;HPM_P2
2022/03/24 00:00:21;;;;;;;28.03;18.77;;;10.70;45.60;;;;;;5034023;28;20166;-79
2022/03/24 00:02:47;;;;;;;25.60;19.50;;;10.70;45.60;;;;;;5015858;28;20173;-79
2022/03/24 00:05:13;;;;;;;24.77;18.83;;;10.70;45.70;;;;;;5015550;28;20178;-79
2022/03/24 00:07:39;;;;;;;25.33;18.33;;;10.60;45.80;;;;;;5032997;28;20576;-79
2022/03/24 00:10:05;;;;;;;23.87;19.27;;;10.60;46.40;;;;;;5020144;28;20232;-79
2022/03/24 00:12:32;;;;;;;24.17;18.17;;;10.60;46.00;;;;;;5032851;28;20917;-79
2022/03/24 00:14:57;;;;;;;26.17;18.67;;;10.60;46.10;;;;;;5033377;28;20166;-79
2022/03/24 00:17:24;;;;;;;26.73;19.80;;;10.50;46.10;;;;;;5032412;28;20665;-79
2022/03/24 00:19:50;;;;;;;23.45;17.27;;;10.50;46.30;;;;;;5015446;28;20181;-78
2022/03/24 00:22:15;;;;;;;26.50;18.87;;;10.50;46.30;;;;;;5032748;28;20166;-78
2022/03/24 00:24:42;;;;;;;24.17;18.37;;;10.50;46.50;;;;;;5032908;28;20174;-79
2022/03/24 00:27:08;;;;;;;26.42;17.98;;;10.40;46.50;;;;;;5014568;28;20208;-79
2022/03/24 00:29:33;;;;;;;22.88;18.20;;;10.40;46.60;;;;;;5032486;28;20213;-79
2022/03/24 00:31:59;;;;;;;22.90;17.73;;;10.40;46.70;;;;;;5014721;28;20626;-78
2022/03/24 00:34:25;;;;;;;26.27;17.57;;;10.30;46.70;;;;;;5015095;28;20181;-79
2022/03/24 00:36:51;;;;;;;22.00;16.37;;;10.30;46.80;;;;;;5014432;28;20166;-80
2022/03/24 00:39:16;;;;;;;24.90;17.03;;;10.30;46.90;;;;;;5014279;28;20221;-80
2022/03/24 00:41:43;;;;;;;24.30;19.13;;;10.20;46.90;;;;;;5014748;28;20565;-79
2022/03/24 00:44:10;;;;;;;22.20;17.77;;;10.20;47.10;;;;;;5032369;28;20170;-80
2022/03/24 00:46:36;;;;;;;22.70;17.17;;;10.20;47.40;;;;;;5018329;28;20520;-79
2022/03/24 00:49:02;;;;;;;25.30;17.57;;;10.20;47.20;;;;;;5014246;28;20207;-79
2022/03/24 00:51:28;;;;;;;24.15;18.58;;;10.10;47.30;;;;;;5014278;28;20208;-80
2022/03/24 00:53:54;;;;;;;37.00;19.27;;;10.10;47.40;;;;;;5014066;28;20165;-80
2022/03/24 00:56:20;;;;;;;27.10;18.70;;;10.10;47.50;;;;;;5022555;28;20260;-80
2022/03/24 00:58:45;;;;;;;23.63;17.70;;;10.10;47.60;;;;;;5014357;28;20195;-79
2022/03/24 01:01:12;;;;;;;24.20;19.07;;;10.10;47.70;;;;;;5014554;28;20250;-79
2022/03/24 01:03:39;;;;;;;23.88;19.10;;;10.00;47.80;;;;;;5014239;28;20268;-79
2022/03/24 01:06:07;;;;;;;25.70;19.00;;;10.00;48.00;;;;;;5014341;28;20634;-79
2022/03/24 01:08:34;;;;;;;28.35;18.20;;;10.00;48.10;;;;;;5031657;28;20677;-79
2022/03/24 01:11:01;;;;;;;23.30;17.48;;;10.00;48.20;;;;;;5014224;28;20237;-78
2022/03/24 01:13:28;;;;;;;23.23;17.77;;;9.90;49.10;;;;;;5032331;28;20187;-78
2022/03/24 01:15:54;;;;;;;25.80;18.60;;;9.90;49.20;;;;;;5032036;28;20168;-78
2022/03/24 01:18:20;;;;;;;26.95;18.15;;;9.90;49.30;;;;;;5013781;28;20214;-78
2022/03/24 01:20:46;;;;;;;24.57;18.40;;;9.80;49.30;;;;;;5014173;28;20239;-78
2022/03/24 01:23:13;;;;;;;25.58;19.58;;;9.80;49.40;;;;;;5017102;28;20177;-79
2022/03/24 01:25:42;;;;;;;24.60;17.60;;;9.80;49.60;;;;;;5032486;28;20170;-79
2022/03/24 01:28:11;;;;;;;24.40;17.55;;;9.80;49.80;;;;;;5013628;28;20193;-79
2022/03/24 01:30:40;;;;;;;26.08;17.70;;;9.70;50.00;;;;;;5014044;28;20257;-79
2022/03/24 01:33:08;;;;;;;24.27;17.33;;;9.70;49.80;;;;;;5013901;28;20669;-79
2022/03/24 01:35:34;;;;;;;26.60;19.02;;;9.70;49.90;;;;;;5031532;28;20595;-79
2022/03/24 01:38:00;;;;;;;24.03;17.87;;;9.70;50.00;;;;;;5013388;28;20276;-79
2022/03/24 01:40:26;;;;;;;24.07;18.87;;;9.70;50.00;;;;;;5013897;28;20561;-79
2022/03/24 01:42:52;;;;;;;23.25;16.80;;;9.70;50.10;;;;;;5013894;28;20565;-79
2022/03/24 01:45:19;;;;;;;25.67;18.63;;;9.60;50.20;;;;;;5031457;28;20169;-79
2022/03/24 01:47:45;;;;;;;27.80;18.48;;;9.60;50.20;;;;;;5013572;28;20186;-79
2022/03/24 01:50:15;;;;;;;22.55;17.17;;;9.60;50.30;;;;;;5016052;28;20192;-79
2022/03/24 01:52:43;;;;;;;24.92;19.02;;;9.60;50.40;;;;;;5017591;28;20169;-79
2022/03/24 01:55:09;;;;;;;30.95;20.67;;;9.60;50.40;;;;;;5035716;28;20184;-79
2022/03/24 01:57:36;;;;;;;22.73;17.40;;;9.50;50.40;;;;;;5017471;28;20304;-79
2022/03/24 02:00:04;;;;;;;25.17;16.92;;;9.50;50.50;;;;;;5019820;28;20177;-78
2022/03/24 02:02:43;;;;;;;21.77;16.92;;;9.50;50.60;;;;;;5036081;28;20181;-79
2022/03/24 02:05:10;;;;;;;25.45;17.90;;;9.40;50.60;;;;;;5017688;28;20181;-79
2022/03/24 02:07:37;;;;;;;26.23;18.92;;;9.40;50.70;;;;;;5000739;28;20642;-79
2022/03/24 02:10:08;;;;;;;24.33;17.42;;;9.40;50.80;;;;;;5017339;28;20233;-79
2022/03/24 02:12:34;;;;;;;22.58;16.92;;;9.40;51.10;;;;;;5017489;28;20170;-79
2022/03/24 02:15:01;;;;;;;25.20;18.20;;;9.40;51.00;;;;;;5017411;28;20185;-79
2022/03/24 02:17:30;;;;;;;21.52;16.90;;;9.30;51.00;;;;;;5016885;28;20185;-79
2022/03/24 02:20:00;;;;;;;23.38;17.83;;;9.30;51.20;;;;;;5017197;28;20182;-79
2022/03/24 02:22:29;;;;;;;22.40;17.13;;;9.30;51.30;;;;;;5017304;28;20177;-79
2022/03/24 02:24:55;;;;;;;22.92;17.08;;;9.30;51.40;;;;;;5034873;28;20257;-79
2022/03/24 02:27:23;;;;;;;21.70;17.97;;;9.30;51.30;;;;;;5017088;28;20287;-79
2022/03/24 02:29:50;;;;;;;25.13;18.35;;;9.30;51.50;;;;;;5034870;28;20620;-78
2022/03/24 02:32:20;;;;;;;28.52;18.35;;;9.20;51.50;;;;;;5017359;28;20522;-79
2022/03/24 02:34:51;;;;;;;22.92;17.40;;;9.20;51.80;;;;;;5034841;28;20600;-79
2022/03/24 02:37:22;;;;;;;22.58;17.42;;;9.20;51.60;;;;;;5038049;28;20177;-79
2022/03/24 02:39:51;;;;;;;24.27;18.35;;;9.20;51.80;;;;;;5034780;28;20258;-79
2022/03/24 02:42:20;;;;;;;23.92;17.35;;;9.20;51.70;;;;;;5034717;28;20193;-79
2022/03/24 02:44:50;;;;;;;25.45;17.80;;;9.20;51.80;;;;;;5034519;28;20173;-80
2022/03/24 02:47:16;;;;;;;21.67;16.52;;;9.20;52.00;;;;;;5016419;28;20581;-78
2022/03/24 02:49:44;;;;;;;24.50;15.95;;;9.10;52.10;;;;;;5034221;28;20288;-79
2022/03/24 02:52:10;;;;;;;23.52;17.55;;;9.10;52.20;;;;;;5034620;28;20170;-79
2022/03/24 02:54:37;;;;;;;23.20;17.25;;;9.10;52.30;;;;;;5016745;28;20170;-78
2022/03/24 02:57:03;;;;;;;26.98;17.80;;;9.10;52.50;;;;;;5034522;28;20177;-79
2022/03/24 02:59:29;;;;;;;23.17;17.05;;;9.10;52.70;;;;;;5016258;28;20182;-78
2022/03/24 03:01:56;;;;;;;19.90;15.90;;;9.10;52.80;;;;;;5033903;28;20535;-79
2022/03/24 03:04:22;;;;;;;21.60;16.73;;;9.00;52.90;;;;;;5034096;28;20569;-79
2022/03/24 03:06:48;;;;;;;20.03;15.13;;;9.00;52.90;;;;;;5034232;28;20223;-79
2022/03/24 03:09:16;;;;;;;18.60;15.95;;;9.00;53.00;;;;;;5015755;28;20209;-79
2022/03/24 03:11:46;;;;;;;18.95;15.20;;;9.00;53.30;;;;;;5033849;28;20162;-79
2022/03/24 03:14:13;;;;;;;21.55;16.70;;;9.00;53.40;;;;;;5036992;28;20173;-79
2022/03/24 03:16:40;;;;;;;22.60;16.85;;;9.00;53.50;;;;;;5034834;28;20244;-79
2022/03/24 03:19:08;;;;;;;25.15;17.40;;;8.90;53.70;;;;;;5015972;28;20208;-79
2022/03/24 03:21:38;;;;;;;26.70;16.02;;;8.90;53.50;;;;;;5033723;28;20166;-79
2022/03/24 03:24:06;;;;;;;24.17;17.80;;;8.90;53.80;;;;;;5033762;28;20177;-78
2022/03/24 03:26:32;;;;;;;21.58;16.98;;;8.90;53.60;;;;;;5033647;28;20170;-78
2022/03/24 03:28:58;;;;;;;22.53;16.37;;;8.90;54.10;;;;;;5033152;28;20197;-78
2022/03/24 03:31:24;;;;;;;21.83;15.60;;;8.90;54.30;;;;;;5033366;28;20560;-78
2022/03/24 03:33:51;;;;;;;24.38;16.25;;;8.90;54.10;;;;;;5033575;28;20169;-79
2022/03/24 03:36:20;;;;;;;23.30;16.50;;;8.90;54.50;;;;;;5033691;28;20189;-79
2022/03/24 03:38:47;;;;;;;16.60;14.43;;;8.90;54.50;;;;;;5033328;28;20281;-79
2022/03/24 03:41:14;;;;;;;20.95;16.30;;;8.90;54.30;;;;;;5033384;28;20184;-78
2022/03/24 03:43:41;;;;;;;21.58;15.95;;;8.90;54.40;;;;;;5058211;22;20239;-75
2022/03/24 03:46:08;;;;;;;19.17;15.68;;;8.90;54.50;;;;;;5064640;28;20251;-75
2022/03/24 03:48:38;;;;;;;19.02;16.77;;;8.90;54.50;;;;;;5057304;28;20208;-74
2022/03/24 03:51:08;;;;;;;20.80;15.02;;;8.80;54.50;;;;;;5064681;28;20167;-76
2022/03/24 03:53:37;;;;;;;19.02;15.35;;;8.80;54.70;;;;;;5065637;28;20729;-75
2022/03/24 03:56:07;;;;;;;19.77;14.43;;;8.80;54.60;;;;;;5064768;28;20173;-75
2022/03/24 03:58:35;;;;;;;19.88;15.18;;;8.80;54.90;;;;;;5070650;28;20222;-75
2022/03/24 04:01:04;;;;;;;17.40;14.18;;;8.80;54.80;;;;;;5072856;28;20168;-75
2022/03/24 04:03:33;;;;;;;18.50;15.15;;;8.70;54.80;;;;;;5071494;28;20734;-75
2022/03/24 04:06:08;;;;;;;18.10;14.48;;;8.70;55.00;;;;;;5071827;28;20692;-75
2022/03/24 04:08:35;;;;;;;22.33;15.38;;;8.70;55.10;;;;;;5072414;28;20325;-76
2022/03/24 04:11:01;;;;;;;18.05;14.75;;;8.60;55.20;;;;;;5071493;28;20172;-76
2022/03/24 04:13:28;;;;;;;18.90;15.80;;;8.60;55.20;;;;;;5071322;28;20196;-76
2022/03/24 04:15:54;;;;;;;20.50;16.00;;;8.60;55.80;;;;;;5072696;28;20567;-76
2022/03/24 04:18:22;;;;;;;22.17;16.90;;;8.50;55.50;;;;;;5072416;28;20169;-76
2022/03/24 04:20:48;;;;;;;20.55;16.23;;;8.50;57.10;;;;;;5071162;28;20183;-76
2022/03/24 04:23:14;;;;;;;23.75;17.70;;;8.40;56.40;;;;;;5072618;28;20196;-76
2022/03/24 04:25:40;;;;;;;22.27;15.87;;;8.40;56.50;;;;;;5072879;28;20226;-76
2022/03/24 04:28:06;;;;;;;20.75;17.10;;;8.40;56.60;;;;;;5072301;28;20591;-76
2022/03/24 04:30:34;;;;;;;20.80;14.35;;;8.40;56.40;;;;;;5072375;28;20246;-76
2022/03/24 04:33:00;;;;;;;17.10;14.77;;;8.40;56.40;;;;;;5054402;28;20172;-76
2022/03/24 04:35:27;;;;;;;22.50;14.85;;;8.40;56.40;;;;;;5071229;28;20194;-76
2022/03/24 04:37:52;;;;;;;21.45;16.92;;;8.40;56.60;;;;;;5070584;28;20168;-76
2022/03/24 04:40:19;;;;;;;20.70;14.83;;;8.40;56.70;;;;;;5072113;28;20179;-76
2022/03/24 04:42:50;;;;;;;25.75;16.70;;;8.30;56.60;;;;;;5070777;28;20183;-76
2022/03/24 04:45:17;;;;;;;22.02;15.38;;;8.30;57.70;;;;;;5054213;28;20211;-76
2022/03/24 04:47:44;;;;;;;20.77;15.50;;;8.30;57.40;;;;;;5072184;28;20606;-76
2022/03/24 04:50:11;;;;;;;20.98;16.17;;;8.30;57.50;;;;;;5070612;28;20207;-76
2022/03/24 04:52:37;;;;;;;17.98;14.38;;;8.30;57.90;;;;;;5072050;28;20168;-76
2022/03/24 04:55:03;;;;;;;19.15;16.25;;;8.30;57.50;;;;;;5070800;28;20188;-76
2022/03/24 04:57:29;;;;;;;20.88;17.38;;;8.20;57.50;;;;;;5070587;28;20519;-77
2022/03/24 04:59:56;;;;;;;23.55;16.90;;;8.20;57.80;;;;;;5071869;28;20604;-77
2022/03/24 05:02:24;;;;;;;19.05;14.50;;;8.20;57.50;;;;;;5070798;28;20576;-76
2022/03/24 05:04:51;;;;;;;19.27;16.50;;;8.20;57.60;;;;;;5070619;28;20288;-76
2022/03/24 05:07:16;;;;;;;19.17;15.63;;;8.20;57.70;;;;;;5071655;28;20562;-76
2022/03/24 05:09:42;;;;;;;21.83;16.07;;;8.20;57.90;;;;;;5070620;28;20196;-76
2022/03/24 05:12:08;;;;;;;24.03;15.57;;;8.20;57.90;;;;;;5070650;28;20202;-76
2022/03/24 05:14:34;;;;;;;21.80;17.07;;;8.20;57.90;;;;;;5071684;28;20194;-77
2022/03/24 05:17:00;;;;;;;18.70;15.67;;;8.20;58.00;;;;;;5071732;28;20566;-76
2022/03/24 05:19:27;;;;;;;26.20;15.70;;;8.10;58.30;;;;;;5070217;28;20187;-75
2022/03/24 05:21:53;;;;;;;21.85;16.95;;;8.10;58.40;;;;;;5072283;28;20183;-76
2022/03/24 05:24:19;;;;;;;18.77;15.25;;;8.10;58.50;;;;;;5071401;28;20275;-75
2022/03/24 05:26:45;;;;;;;18.87;14.90;;;8.10;58.70;;;;;;5072468;28;20367;-75
2022/03/24 05:29:11;;;;;;;18.93;15.40;;;8.10;58.70;;;;;;5071299;28;20650;-77
2022/03/24 05:31:37;;;;;;;19.77;14.70;;;8.10;58.80;;;;;;5071494;28;20555;-76
2022/03/24 05:34:04;;;;;;;24.23;16.83;;;8.10;59.00;;;;;;5070710;28;20246;-76
2022/03/24 05:36:30;;;;;;;22.70;15.95;;;8.10;59.20;;;;;;5063212;28;20173;-76
2022/03/24 05:38:56;;;;;;;16.25;14.18;;;8.10;59.20;;;;;;5071301;28;20164;-77
2022/03/24 05:41:22;;;;;;;21.00;16.27;;;8.10;59.30;;;;;;5070152;28;20168;-77
2022/03/24 05:44:03;;;;;;;20.20;16.00;;;8.10;59.50;;;;;;5071205;28;20203;-76
2022/03/24 05:46:35;;;;;;;18.85;15.40;;;8.10;59.60;;;;;;5071427;28;20172;-76
2022/03/24 05:49:02;;;;;;;22.88;18.45;;;8.10;59.70;;;;;;5053249;28;20226;-76
2022/03/24 05:51:50;;;;;;;21.13;16.23;;;8.00;60.40;;;;;;5069598;28;20242;-76
2022/03/24 05:54:17;;;;;;;19.98;17.30;;;8.00;60.10;;;;;;5071224;28;20184;-76
2022/03/24 05:56:44;;;;;;;24.88;17.70;;;8.10;60.10;;;;;;5069885;28;20524;-76
2022/03/24 05:59:10;;;;;;;25.40;17.20;;;8.10;62.20;;;;;;5053349;28;20191;-76
2022/03/24 06:01:39;;;;;;;22.40;17.40;;;8.10;61.30;;;;;;5071085;28;20176;-77
2022/03/24 06:04:05;;;;;;;22.70;17.75;;;8.10;61.50;;;;;;5073318;28;20199;-77
2022/03/24 06:06:34;;;;;;;25.60;18.60;;;8.10;62.20;;;;;;5072072;28;20280;-77
2022/03/24 06:09:03;;;;;;;22.73;16.27;;;8.10;62.20;;;;;;5072603;28;20228;-76
2022/03/24 06:11:28;;;;;;;23.27;15.15;;;8.20;62.50;;;;;;5072580;28;20652;-77
2022/03/24 06:13:54;;;;;;;23.63;16.90;;;8.20;62.50;;;;;;5072474;28;20185;-77
2022/03/24 06:16:21;;;;;;;20.60;16.80;;;8.20;62.60;;;;;;5073189;28;20168;-77
2022/03/24 06:18:47;;;;;;;24.92;18.33;;;8.20;64.50;;;;;;5070597;28;20169;-76
2022/03/24 06:21:14;;;;;;;29.70;18.17;;;8.20;64.00;;;;;;5069672;28;20640;-75
2022/03/24 06:23:40;;;;;;;21.52;15.75;;;8.30;65.20;;;;;;5071699;28;20684;-77
2022/03/24 06:26:06;;;;;;;19.40;15.20;;;8.30;65.50;;;;;;5070540;28;20167;-76
2022/03/24 06:28:32;;;;;;;17.83;15.07;;;8.30;64.80;;;;;;5069847;28;20700;-77
2022/03/24 06:30:57;;;;;;;20.77;16.77;;;8.40;64.40;;;;;;5069693;28;20620;-77
2022/03/24 06:33:23;;;;;;;18.50;16.03;;;8.40;65.70;;;;;;5071189;28;20190;-76
2022/03/24 06:35:49;;;;;;;20.80;16.40;;;8.40;65.40;;;;;;5072596;28;20650;-76
2022/03/24 06:38:17;;;;;;;20.45;15.85;;;8.50;65.70;;;;;;5074779;28;20164;-76
2022/03/24 06:40:42;;;;;;;18.70;14.70;;;8.60;65.70;;;;;;5077537;28;20210;-77
2022/03/24 06:43:09;;;;;;;21.20;16.53;;;8.70;66.20;;;;;;5073252;28;20165;-77
2022/03/24 06:45:36;;;;;;;23.33;16.65;;;8.70;66.30;;;;;;5074597;28;20630;-77
2022/03/24 06:48:04;;;;;;;20.55;17.00;;;8.80;65.90;;;;;;5073050;28;20188;-76
2022/03/24 06:50:29;;;;;;;22.30;18.38;;;8.80;66.20;;;;;;5074463;28;20164;-76
2022/03/24 06:52:55;;;;;;;30.23;17.40;;;8.90;66.30;;;;;;5073022;28;20176;-77
2022/03/24 06:55:21;;;;;;;19.27;14.23;;;8.90;66.70;;;;;;5056434;28;20221;-77
2022/03/24 06:57:47;;;;;;;19.48;15.02;;;9.00;66.90;;;;;;5074093;28;20169;-77
2022/03/24 07:00:15;;;;;;;20.57;17.50;;;9.10;67.10;;;;;;5073984;28;20577;-77
2022/03/24 07:02:45;;;;;;;22.42;16.92;;;9.20;66.90;;;;;;5072889;28;20214;-77
2022/03/24 07:05:12;;;;;;;25.05;17.35;;;9.30;67.20;;;;;;5074682;28;20207;-77
2022/03/24 07:07:38;;;;;;;23.35;16.85;;;9.50;67.80;;;;;;5053028;28;20185;-76
2022/03/24 07:10:05;;;;;;;20.58;16.33;;;9.50;67.70;;;;;;5052474;28;20745;-77
2022/03/24 07:12:31;;;;;;;23.67;18.60;;;9.70;67.70;;;;;;5053696;28;20204;-77
2022/03/24 07:14:57;;;;;;;24.23;19.07;;;9.80;67.80;;;;;;5053106;28;20235;-76
2022/03/24 07:17:24;;;;;;;25.03;18.10;;;10.00;66.60;;;;;;5054583;28;20591;-75
2022/03/24 07:19:50;;;;;;;25.92;19.77;;;10.10;66.70;;;;;;5054933;28;20947;-75
2022/03/24 07:22:16;;;;;;;21.17;16.07;;;10.30;66.70;;;;;;5053348;28;20165;-75
2022/03/24 07:24:42;;;;;;;21.98;17.77;;;10.50;66.90;;;;;;5053643;28;20185;-75
2022/03/24 07:27:09;;;;;;;24.35;19.80;;;10.90;67.40;;;;;;5053359;28;20527;-74
2022/03/24 07:29:35;;;;;;;24.13;19.08;;;11.50;69.00;;;;;;5053543;28;20193;-75
2022/03/24 07:32:01;;;;;;;28.80;20.50;;;12.30;70.70;;;;;;5052205;28;20264;-76
2022/03/24 07:34:28;;;;;;;25.07;18.00;;;13.20;71.90;;;;;;5053854;28;20649;-75
2022/03/24 07:36:54;;;;;;;23.33;19.80;;;14.30;72.30;;;;;;5051786;28;20173;-75
2022/03/24 07:39:20;;;;;;;20.70;17.90;;;15.20;71.60;;;;;;5052573;28;20579;-75
2022/03/24 07:41:45;;;;;;;22.50;18.37;;;16.30;71.30;;;;;;5053702;28;20568;-74
2022/03/24 07:44:12;;;;;;;19.67;17.00;;;17.40;70.40;;;;;;5035509;28;20212;-74
2022/03/24 07:46:38;;;;;;;24.00;18.03;;;18.40;68.80;;;;;;5047563;28;20184;-74
2022/03/24 07:49:04;;;;;;;18.07;16.17;;;19.30;66.80;;;;;;5050632;28;20673;-75
2022/03/24 07:51:34;;;;;;;21.43;17.57;;;20.10;64.90;;;;;;5030725;28;20692;-75
2022/03/24 07:54:03;;;;;;;26.55;23.65;;;20.80;62.30;;;;;;5024903;28;20729;-75
2022/03/24 07:56:30;;;;;;;23.27;20.77;;;21.20;54.20;;;;;;5056030;28;20177;-75
2022/03/24 07:58:57;;;;;;;19.87;17.73;;;21.80;56.60;;;;;;5050061;28;21275;-75
2022/03/24 08:01:28;;;;;;;27.80;22.27;;;22.50;56.80;;;;;;5052340;28;20991;-75
2022/03/24 08:03:56;;;;;;;22.30;19.70;;;23.10;55.90;;;;;;5052498;28;20620;-75
2022/03/24 08:06:22;;;;;;;21.10;19.10;;;23.60;55.40;;;;;;5052326;28;20610;-75
2022/03/24 08:08:48;;;;;;;27.13;24.43;;;24.20;54.90;;;;;;5052077;28;20721;-75
2022/03/24 08:11:14;;;;;;;22.60;19.87;;;24.30;47.30;;;;;;5052122;28;20165;-76
2022/03/24 08:13:40;;;;;;;22.47;20.17;;;24.80;50.30;;;;;;5043250;28;20723;-75
2022/03/24 08:16:06;;;;;;;19.57;17.23;;;25.10;50.00;;;;;;5050358;28;20180;-75
2022/03/24 08:18:32;;;;;;;20.80;17.33;;;25.40;50.10;;;;;;5051285;28;20260;-75
2022/03/24 08:20:58;;;;;;;18.60;16.70;;;25.90;49.80;;;;;;5051797;28;20226;-75
2022/03/24 08:23:24;;;;;;;20.43;18.30;;;26.30;49.60;;;;;;5050225;28;20618;-75
2022/03/24 08:25:51;;;;;;;20.77;18.60;;;26.70;48.70;;;;;;5051572;28;20177;-75
2022/03/24 08:28:17;;;;;;;22.63;20.33;;;27.00;48.20;;;;;;5051730;28;20640;-75
2022/03/24 08:30:46;;;;;;;19.83;17.90;;;27.50;47.80;;;;;;5051716;28;20576;-74
2022/03/24 08:33:13;;;;;;;22.07;19.67;;;27.80;47.20;;;;;;5055423;28;20615;-74
2022/03/24 08:35:40;;;;;;;22.73;20.33;;;28.20;46.80;;;;;;5051833;28;20563;-75
2022/03/24 08:38:07;;;;;;;21.53;19.40;;;28.50;46.10;;;;;;5051549;28;20617;-74
2022/03/24 08:40:33;;;;;;;24.23;18.33;;;28.70;45.40;;;;;;5051487;28;20626;-74
2022/03/24 08:42:59;;;;;;;21.23;19.13;;;28.80;44.90;;;;;;5056785;28;21118;-74
2022/03/24 08:45:25;;;;;;;21.33;19.17;;;29.20;44.70;;;;;;5057802;28;20587;-74
2022/03/24 08:47:53;;;;;;;26.07;20.17;;;29.60;44.20;;;;;;5059491;28;20168;-75
2022/03/24 08:50:21;;;;;;;20.50;18.50;;;30.00;44.00;;;;;;5060883;28;20213;-75
2022/03/24 08:52:48;;;;;;;20.17;18.10;;;30.40;43.50;;;;;;5061707;28;20555;-75
2022/03/24 08:55:14;;;;;;;21.70;19.60;;;30.70;42.70;;;;;;5057029;28;20587;-75
2022/03/24 08:57:42;;;;;;;23.00;20.60;;;30.80;41.40;;;;;;5053634;28;20579;-75
2022/03/24 09:00:15;;;;;;;23.83;19.60;;;30.80;40.70;;;;;;5053555;28;20568;-76
2022/03/24 09:02:43;;;;;;;25.60;19.20;;;30.90;40.40;;;;;;5053266;28;20619;-75
2022/03/24 09:05:09;;;;;;;21.87;19.77;;;31.20;40.20;;;;;;5053028;28;20599;-75
2022/03/24 09:07:36;;;;;;;22.30;20.20;;;31.50;40.40;;;;;;5052025;28;20949;-75
2022/03/24 09:10:07;;;;;;;21.70;19.50;;;31.70;39.60;;;;;;5051540;28;20643;-75
2022/03/24 09:12:35;;;;;;;21.77;19.47;;;32.00;39.10;;;;;;5050363;28;20584;-75
2022/03/24 09:15:05;;;;;;;22.00;20.00;;;32.30;38.80;;;;;;5062105;28;20611;-75
2022/03/24 09:17:31;;;;;;;23.00;20.60;;;32.50;38.10;;;;;;5060929;28;20592;-75
2022/03/24 09:19:57;;;;;;;23.13;21.00;;;32.70;37.70;;;;;;5049727;28;20594;-74
2022/03/24 09:22:22;;;;;;;22.47;20.17;;;32.90;37.30;;;;;;5052927;28;21181;-74
2022/03/24 09:24:48;;;;;;;22.40;20.50;;;33.00;36.90;;;;;;5054770;28;20187;-74
2022/03/24 09:27:15;;;;;;;22.70;20.50;;;33.20;36.50;;;;;;5064917;28;20584;-74
2022/03/24 09:29:42;;;;;;;21.17;19.17;;;33.40;36.50;;;;;;5062608;28;20192;-75
2022/03/24 09:32:12;;;;;;;22.47;20.30;;;33.60;36.00;;;;;;5053193;28;20564;-74
2022/03/24 09:34:39;;;;;;;24.57;22.47;;;33.80;35.60;;;;;;5067667;28;20599;-75
2022/03/24 09:37:06;;;;;;;22.77;20.50;;;33.90;34.90;;;;;;5047612;28;20599;-75
2022/03/24 09:39:32;;;;;;;24.30;21.70;;;34.10;34.50;;;;;;5051868;28;20579;-76
2022/03/24 09:41:58;;;;;;;24.67;22.40;;;34.20;34.80;;;;;;5051910;28;20580;-75
2022/03/24 09:44:25;;;;;;;24.10;21.70;;;34.20;33.50;;;;;;5051513;28;20206;-76
2022/03/24 09:46:51;;;;;;;24.77;22.20;;;34.30;33.30;;;;;;5043249;28;20627;-75
2022/03/24 09:49:17;;;;;;;24.50;22.30;;;34.30;33.20;;;;;;5047943;28;20633;-75
2022/03/24 09:51:44;;;;;;;23.77;21.77;;;34.40;33.00;;;;;;5050849;28;20903;-75
2022/03/24 09:54:11;;;;;;;26.37;23.83;;;34.40;32.30;;;;;;5044762;28;21265;-77
2022/03/24 09:56:38;;;;;;;30.92;27.92;;;34.50;32.00;;;;;;5052225;28;21064;-76
2022/03/24 09:59:05;;;;;;;28.83;26.10;;;34.10;29.00;;;;;;5046889;28;20186;-75
2022/03/24 10:01:31;;;;;;;24.93;22.73;;;34.20;30.20;;;;;;5050758;28;20612;-76
2022/03/24 10:04:13;;;;;;;25.23;23.00;;;34.30;31.20;;;;;;5058940;28;20718;-75
2022/03/24 10:07:07;;;;;;;24.80;22.60;;;34.50;30.30;;;;;;5055391;28;20610;-77
2022/03/24 10:09:44;;;;;;;26.40;24.10;;;34.60;31.10;;;;;;5065067;28;20791;-76
2022/03/24 10:12:36;;;;;;;25.87;23.30;;;34.70;30.00;;;;;;5059678;28;21112;-77
2022/03/24 10:15:11;;;;;;;25.17;22.87;;;34.80;29.90;;;;;;5066569;28;20621;-75
2022/03/24 10:17:38;;;;;;;27.50;24.80;;;34.80;30.00;;;;;;5070970;28;20573;-75
2022/03/24 10:20:12;;;;;;;26.83;24.37;;;34.80;30.00;;;;;;5043301;28;20743;-75
2022/03/24 10:22:38;;;;;;;24.40;22.10;;;34.80;29.60;;;;;;5061347;28;21209;-76
2022/03/24 10:25:19;;;;;;;26.50;24.10;;;34.90;29.90;;;;;;5066531;28;20734;-76
2022/03/24 10:28:01;;;;;;;28.67;26.07;;;34.90;29.70;;;;;;5059632;28;20585;-76
2022/03/24 10:30:27;;;;;;;25.90;23.50;;;34.90;29.30;;;;;;5054114;28;20672;-76
2022/03/24 10:32:56;;;;;;;28.03;24.80;;;34.90;29.40;;;;;;5041974;28;20935;-75
2022/03/24 10:35:22;;;;;;;27.60;24.90;;;34.80;29.10;;;;;;5052956;28;20174;-77
2022/03/24 10:37:51;;;;;;;32.43;29.40;;;34.70;29.10;;;;;;5053452;28;20678;-76
2022/03/24 10:40:18;;;;;;;29.87;27.13;;;34.50;28.60;;;;;;5053023;28;21140;-76
2022/03/24 10:42:44;;;;;;;29.10;26.50;;;34.30;28.70;;;;;;5053891;28;20938;-76
2022/03/24 10:45:10;;;;;;;28.47;25.93;;;34.10;28.90;;;;;;5054107;28;20621;-76
2022/03/24 10:47:49;;;;;;;29.17;26.67;;;33.80;28.90;;;;;;5053608;28;20179;-76
2022/03/24 10:50:45;;;;;;;29.47;26.67;;;33.60;29.00;;;;;;5036011;28;20646;-76
2022/03/24 10:53:13;;;;;;;26.73;24.40;;;33.30;28.80;;;;;;5052887;28;20565;-74
2022/03/24 10:55:46;;;;;;;29.90;27.10;;;33.30;29.10;;;;;;5058570;28;20561;-76
2022/03/24 10:58:32;;;;;;;28.60;25.80;;;33.10;28.60;;;;;;5053536;28;20668;-75
2022/03/24 11:01:01;;;;;;;28.30;25.57;;;32.90;28.60;;;;;;5058168;28;20565;-76
2022/03/24 11:03:27;;;;;;;28.50;26.07;;;32.70;28.50;;;;;;5053778;28;20657;-76
2022/03/24 11:06:27;;;;;;;25.30;23.00;;;32.50;28.30;;;;;;5053907;28;21020;-76
2022/03/24 11:08:54;;;;;;;23.53;21.10;;;32.30;28.30;;;;;;5054461;28;21016;-77
2022/03/24 11:11:21;;;;;;;22.10;20.00;;;32.20;28.40;;;;;;5057746;28;20631;-76
2022/03/24 11:13:55;;;;;;;22.43;20.53;;;32.10;28.60;;;;;;5052819;28;20619;-75
2022/03/24 11:16:27;;;;;;;20.00;18.20;;;31.90;27.80;;;;;;5052389;28;20584;-75
2022/03/24 11:18:55;;;;;;;18.87;16.93;;;31.80;27.70;;;;;;5033169;28;20568;-75
2022/03/24 11:21:39;;;;;;;20.97;18.20;;;31.60;27.80;;;;;;5042396;28;21036;-76
2022/03/24 11:24:05;;;;;;;19.87;17.87;;;31.40;27.50;;;;;;5052338;28;20638;-76
2022/03/24 11:26:33;;;;;;;21.77;19.57;;;31.20;27.50;;;;;;5053538;28;20567;-76
2022/03/24 11:28:59;;;;;;;19.37;17.57;;;31.00;27.40;;;;;;5052953;28;20625;-77
2022/03/24 11:31:31;;;;;;;16.23;14.80;;;30.80;27.80;;;;;;5053572;28;20593;-76
2022/03/24 11:34:00;;;;;;;21.03;18.90;;;30.60;27.50;;;;;;5052903;28;20971;-76
2022/03/24 11:36:28;;;;;;;19.43;17.40;;;30.40;27.20;;;;;;5053364;28;20563;-76
2022/03/24 11:38:56;;;;;;;16.97;15.17;;;30.20;27.40;;;;;;5034751;28;20580;-75
2022/03/24 11:41:45;;;;;;;15.97;14.37;;;29.90;27.30;;;;;;5052997;28;20674;-76
2022/03/24 11:44:27;;;;;;;21.13;15.13;;;29.70;27.30;;;;;;5052612;28;20618;-76
2022/03/24 11:47:02;;;;;;;15.83;13.23;;;29.50;27.40;;;;;;5053027;28;20579;-77
2022/03/24 11:49:29;;;;;;;12.17;10.67;;;29.40;27.70;;;;;;5050159;28;21027;-77
2022/03/24 11:51:58;;;;;;;10.93;9.30;;;29.30;27.40;;;;;;5062513;28;20697;-77
2022/03/24 11:54:28;;;;;;;14.30;10.70;;;29.20;27.70;;;;;;5062401;28;20654;-76
2022/03/24 11:57:22;;;;;;;14.23;7.70;;;29.10;27.60;;;;;;5063904;28;20918;-77
2022/03/24 11:59:49;;;;;;;17.20;8.70;;;29.10;27.30;;;;;;5050123;28;20578;-76
2022/03/24 12:02:17;;;;;;;14.40;9.80;;;29.00;27.40;;;;;;5062094;28;20582;-77
2022/03/24 12:04:56;;;;;;;11.90;10.20;;;28.90;27.40;;;;;;5065540;28;20713;-77
2022/03/24 12:07:24;;;;;;;15.40;10.90;;;28.70;27.40;;;;;;5060832;28;20582;-77
2022/03/24 12:10:02;;;;;;;10.17;9.17;;;28.60;27.50;;;;;;5064423;28;20799;-76
2022/03/24 12:12:29;;;;;;;13.37;9.40;;;28.50;27.50;;;;;;5058817;28;21035;-77
2022/03/24 12:14:55;;;;;;;12.40;7.73;;;28.30;27.30;;;;;;5066178;28;20610;-76
2022/03/24 12:17:26;;;;;;;12.40;7.57;;;28.10;27.30;;;;;;5063078;28;20586;-76
2022/03/24 12:19:57;;;;;;;9.23;7.50;;;27.80;27.10;;;;;;5064375;28;20574;-76
2022/03/24 12:22:25;;;;;;;12.37;8.47;;;27.70;27.20;;;;;;5054778;28;20602;-77
2022/03/24 12:24:52;;;;;;;9.90;6.87;;;27.50;27.20;;;;;;5061305;28;20602;-76
2022/03/24 12:27:18;;;;;;;8.53;6.97;;;27.40;27.30;;;;;;5062274;28;20590;-77
2022/03/24 12:30:10;;;;;;;9.60;7.70;;;27.20;27.30;;;;;;5066792;28;20967;-77
2022/03/24 12:32:36;;;;;;;12.07;9.70;;;27.00;27.40;;;;;;5062743;28;20590;-76
2022/03/24 12:35:03;;;;;;;14.50;10.93;;;26.90;27.70;;;;;;5065955;28;20614;-76
2022/03/24 12:37:32;;;;;;;12.73;10.60;;;26.80;27.90;;;;;;5062858;28;20967;-77